createdAt,value
2023-04-16T00:00:26.349Z,93.98
2023-04-16T00:04:29.452Z,94.47
2023-04-16T00:08:32.172Z,94.59
2023-04-16T00:12:36.560Z,94.83
2023-04-16T00:16:39.581Z,94.70
2023-04-16T00:20:42.304Z,95.24
2023-04-16T00:24:44.909Z,94.98
2023-04-16T00:28:49.116Z,95.13
2023-04-16T00:32:51.737Z,95.39
2023-04-16T00:36:54.392Z,95.92
2023-04-16T00:40:58.681Z,95.60
2023-04-16T00:45:02.628Z,95.88
2023-04-16T00:49:05.588Z,95.74
2023-04-16T00:53:08.377Z,95.74
2023-04-16T00:57:11.245Z,96.07
2023-04-16T01:01:15.499Z,96.20
2023-04-16T01:05:18.240Z,95.85
2023-04-16T01:09:20.871Z,96.06
2023-04-16T01:13:23.489Z,96.39
2023-04-16T01:17:27.556Z,96.04
2023-04-16T01:21:31.514Z,95.89
2023-04-16T01:25:34.147Z,96.02
2023-04-16T01:29:37.463Z,95.94
2023-04-16T01:33:40.081Z,96.07
2023-04-16T01:37:44.064Z,96.09
2023-04-16T01:41:46.752Z,96.23
2023-04-16T01:45:49.370Z,95.90
2023-04-16T01:49:52.383Z,95.94
2023-04-16T01:53:58.275Z,95.63
2023-04-16T01:58:00.944Z,95.84
2023-04-16T02:02:08.431Z,95.69
2023-04-16T02:06:11.269Z,96.00
2023-04-16T02:10:15.336Z,95.92
2023-04-16T02:14:17.932Z,96.09
2023-04-16T02:18:20.643Z,95.75
2023-04-16T02:22:23.312Z,95.73
2023-04-16T02:26:27.265Z,96.10
2023-04-16T02:30:29.861Z,96.20
2023-04-16T02:34:33.656Z,95.96
2023-04-16T02:38:37.476Z,95.71
2023-04-16T02:42:41.446Z,95.74
2023-04-16T02:46:44.062Z,96.07
2023-04-16T02:50:46.642Z,95.70
2023-04-16T02:54:49.484Z,95.60
2023-04-16T02:58:53.686Z,95.99
2023-04-16T03:02:56.433Z,95.41
2023-04-16T03:06:59.402Z,95.29
2023-04-16T03:11:02.068Z,95.44
2023-04-16T03:15:07.126Z,95.36
2023-04-16T03:19:10.002Z,95.55
2023-04-16T03:23:12.973Z,95.33
2023-04-16T03:27:15.558Z,95.63
2023-04-16T03:31:19.558Z,95.48
2023-04-16T03:35:22.171Z,95.27
2023-04-16T03:39:24.870Z,95.36
2023-04-16T03:43:27.472Z,95.37
2023-04-16T03:47:31.511Z,95.87
2023-04-16T03:51:34.195Z,95.80
2023-04-16T03:55:36.932Z,96.00
2023-04-16T03:59:39.557Z,96.20
2023-04-16T04:03:43.712Z,96.46
2023-04-16T04:07:46.527Z,96.30
2023-04-16T04:11:49.142Z,96.47
2023-04-16T04:15:52.086Z,96.26
2023-04-16T04:20:01.297Z,96.46
2023-04-16T04:24:04.678Z,96.81
2023-04-16T04:28:07.318Z,96.89
2023-04-16T04:32:09.951Z,96.55
2023-04-16T04:36:13.977Z,96.24
2023-04-16T04:40:16.830Z,96.14
2023-04-16T04:44:19.445Z,96.54
2023-04-16T04:48:26.454Z,96.14
2023-04-16T04:52:30.414Z,96.32
2023-04-16T04:56:33.048Z,96.20
2023-04-16T05:00:36.847Z,95.76
2023-04-16T05:04:39.527Z,95.79
2023-04-16T05:08:43.503Z,95.68
2023-04-16T05:12:48.926Z,95.52
2023-04-16T05:16:51.795Z,95.83
2023-04-16T05:20:54.468Z,95.72
2023-04-16T05:24:58.456Z,95.65
2023-04-16T05:29:01.055Z,96.22
2023-04-16T05:33:03.789Z,96.30
2023-04-16T05:37:06.580Z,95.61
2023-04-16T05:41:10.653Z,94.88
2023-04-16T05:45:13.548Z,94.71
2023-04-16T05:49:16.401Z,94.52
2023-04-16T05:53:19.962Z,94.48
2023-04-16T05:57:23.941Z,94.50
2023-04-16T06:01:26.586Z,94.60
2023-04-16T06:05:29.866Z,94.76
2023-04-16T06:09:32.513Z,94.68
2023-04-16T06:13:36.750Z,93.65
2023-04-16T06:17:39.608Z,94.08
2023-04-16T06:21:42.261Z,94.09
2023-04-16T06:25:44.913Z,93.06
2023-04-16T06:29:49.352Z,93.66
2023-04-16T06:33:51.990Z,92.83
2023-04-16T06:37:54.621Z,92.37
2023-04-16T06:41:57.522Z,91.99
2023-04-16T06:46:01.722Z,90.65
2023-04-16T06:50:04.562Z,89.97
2023-04-16T06:54:07.220Z,89.57
2023-04-16T06:58:09.860Z,89.20
2023-04-16T07:02:13.893Z,88.21
2023-04-16T07:06:16.515Z,86.51
2023-04-16T07:10:19.140Z,86.91
2023-04-16T07:14:21.870Z,86.75
2023-04-16T07:18:25.927Z,86.31
2023-04-16T07:22:28.591Z,86.27
2023-04-16T07:26:31.259Z,86.18
2023-04-16T07:30:35.677Z,84.17
2023-04-16T07:34:39.690Z,85.37
2023-04-16T07:38:42.328Z,84.65
2023-04-16T07:42:45.553Z,84.38
2023-04-16T07:46:48.237Z,84.17
2023-04-16T07:50:52.318Z,84.08
2023-04-16T07:54:54.938Z,82.24
2023-04-16T07:59:02.902Z,83.20
2023-04-16T08:03:11.109Z,83.68
2023-04-16T08:07:15.532Z,81.42
2023-04-16T08:11:18.164Z,81.39
2023-04-16T08:15:21.065Z,81.44
2023-04-16T08:19:23.724Z,81.92
2023-04-16T08:23:27.771Z,83.91
2023-04-16T08:27:30.414Z,84.51
2023-04-16T08:31:33.817Z,84.27
2023-04-16T08:35:36.503Z,83.97
2023-04-16T08:39:40.551Z,84.28
2023-04-16T08:43:46.426Z,84.22
2023-04-16T08:47:50.386Z,83.30
2023-04-16T08:51:54.300Z,83.63
2023-04-16T08:56:03.686Z,82.64
2023-04-16T09:00:08.903Z,82.99
2023-04-16T09:04:12.206Z,83.07
2023-04-16T09:08:15.083Z,82.84
2023-04-16T09:12:19.112Z,81.69
2023-04-16T09:16:22.227Z,82.02
2023-04-16T09:20:24.898Z,80.87
2023-04-16T09:24:27.870Z,80.87
2023-04-16T09:28:42.061Z,80.42
2023-04-16T09:32:44.723Z,79.48
2023-04-16T09:36:47.634Z,79.03
2023-04-16T09:41:07.736Z,78.51
2023-04-16T09:45:13.251Z,78.24
2023-04-16T09:49:19.260Z,76.40
2023-04-16T09:53:25.732Z,75.40
2023-04-16T09:57:28.443Z,75.24
2023-04-16T10:01:33.063Z,74.71
2023-04-16T10:05:35.794Z,73.53
2023-04-16T10:09:39.099Z,73.25
2023-04-16T10:13:41.758Z,71.36
2023-04-16T10:17:46.539Z,70.81
2023-04-16T10:21:49.371Z,71.00
2023-04-16T10:25:54.158Z,69.63
2023-04-16T10:29:58.468Z,68.92
2023-04-16T10:34:03.476Z,68.69
2023-04-16T10:38:25.317Z,69.81
2023-04-16T10:42:28.459Z,70.49
2023-04-16T10:46:34.535Z,69.18
2023-04-16T10:50:39.709Z,68.27
2023-04-16T10:54:42.419Z,66.80
2023-04-16T10:58:45.033Z,67.61
2023-04-16T11:02:47.788Z,68.37
2023-04-16T11:07:04.070Z,67.06
2023-04-16T11:11:07.227Z,66.94
2023-04-16T11:15:11.833Z,67.35
2023-04-16T11:19:18.322Z,65.84
2023-04-16T11:23:22.426Z,64.39
2023-04-16T11:27:25.558Z,66.37
2023-04-16T11:31:28.400Z,64.32
2023-04-16T11:35:31.209Z,63.75
2023-04-16T11:39:35.163Z,64.07
2023-04-16T11:43:38.217Z,63.57
2023-04-16T11:47:46.029Z,63.15
2023-04-16T11:51:49.100Z,62.02
2023-04-16T11:55:53.099Z,62.26
2023-04-16T12:00:02.121Z,61.96
2023-04-16T12:04:06.776Z,63.19
2023-04-16T12:08:11.367Z,62.52
2023-04-16T12:12:32.108Z,60.98
2023-04-16T12:16:35.866Z,61.85
2023-04-16T12:20:42.189Z,62.06
2023-04-16T12:24:45.026Z,62.50
2023-04-16T12:28:49.034Z,64.71
2023-04-16T12:32:53.366Z,65.45
2023-04-16T12:37:07.314Z,66.00
2023-04-16T12:41:09.910Z,66.06
2023-04-16T12:45:13.884Z,66.51
2023-04-16T12:49:16.664Z,66.56
2023-04-16T12:53:19.333Z,65.48
2023-04-16T12:57:23.840Z,63.33
2023-04-16T13:01:27.873Z,64.94
2023-04-16T13:05:31.180Z,64.04
2023-04-16T13:09:33.919Z,64.01
2023-04-16T13:13:36.643Z,63.75
2023-04-16T13:17:40.673Z,63.99
2023-04-16T13:21:43.401Z,63.77
2023-04-16T13:25:46.144Z,62.75
2023-04-16T13:29:49.188Z,62.71
2023-04-16T13:33:53.234Z,61.54
2023-04-16T13:37:55.849Z,59.81
2023-04-16T13:41:58.453Z,58.85
2023-04-16T13:46:01.978Z,59.36
2023-04-16T13:50:06.836Z,59.10
2023-04-16T13:54:09.415Z,58.18
2023-04-16T13:58:12.083Z,58.03
2023-04-16T14:02:15.197Z,59.36
2023-04-16T14:06:19.163Z,58.07
2023-04-16T14:10:22.245Z,57.26
2023-04-16T14:14:25.904Z,58.58
2023-04-16T14:18:28.478Z,58.32
2023-04-16T14:22:32.449Z,57.91
2023-04-16T14:26:35.146Z,58.41
2023-04-16T14:30:37.748Z,60.51
2023-04-16T14:34:40.389Z,61.04
2023-04-16T14:38:44.478Z,60.89
2023-04-16T14:42:47.115Z,61.06
2023-04-16T14:46:49.873Z,61.03
2023-04-16T14:50:52.608Z,61.14
2023-04-16T14:54:56.610Z,61.87
2023-04-16T14:58:59.279Z,62.40
2023-04-16T15:03:02.153Z,62.87
2023-04-16T15:07:04.977Z,60.98
2023-04-16T15:11:08.982Z,62.69
2023-04-16T15:15:12.073Z,64.24
2023-04-16T15:19:14.882Z,63.11
2023-04-16T15:23:17.505Z,64.79
2023-04-16T15:27:21.489Z,63.00
2023-04-16T15:31:24.218Z,62.94
2023-04-16T15:35:27.084Z,61.55
2023-04-16T15:39:30.083Z,64.32
2023-04-16T15:43:34.418Z,60.58
2023-04-16T15:47:39.540Z,60.15
2023-04-16T15:51:43.850Z,61.61
2023-04-16T15:55:46.542Z,61.25
2023-04-16T16:00:05.963Z,62.79
2023-04-16T16:04:09.917Z,62.57
2023-04-16T16:08:13.096Z,63.76
2023-04-16T16:12:15.704Z,64.41
2023-04-16T16:16:19.767Z,64.74
2023-04-16T16:20:23.403Z,64.75
2023-04-16T16:24:26.499Z,63.06
2023-04-16T16:28:29.080Z,63.48
2023-04-16T16:32:33.075Z,63.99
2023-04-16T16:36:36.838Z,64.46
2023-04-16T16:40:39.603Z,65.11
2023-04-16T16:44:42.235Z,65.89
2023-04-16T16:48:46.463Z,65.44
2023-04-16T16:52:49.120Z,65.03
2023-04-16T16:56:52.083Z,65.19
2023-04-16T17:00:54.866Z,64.24
2023-04-16T17:04:59.912Z,64.74
2023-04-16T17:09:04.081Z,65.19
2023-04-16T17:13:07.058Z,64.21
2023-04-16T17:17:09.991Z,63.55
2023-04-16T17:21:15.922Z,64.04
2023-04-16T17:25:19.384Z,64.04
2023-04-16T17:29:25.916Z,64.49
2023-04-16T17:33:29.358Z,64.99
2023-04-16T17:37:33.950Z,65.69
2023-04-16T17:41:37.059Z,66.13
2023-04-16T17:45:40.099Z,67.24
2023-04-16T17:49:42.954Z,67.52
2023-04-16T17:53:46.964Z,68.50
2023-04-16T17:57:50.037Z,69.04
2023-04-16T18:01:52.971Z,69.51
2023-04-16T18:05:55.865Z,70.14
2023-04-16T18:09:59.880Z,70.97
2023-04-16T18:14:02.491Z,71.63
2023-04-16T18:18:05.616Z,71.84
2023-04-16T18:22:08.331Z,72.57
2023-04-16T18:26:12.860Z,73.42
2023-04-16T18:30:23.436Z,73.43
2023-04-16T18:34:29.689Z,74.01
2023-04-16T18:38:32.366Z,74.16
2023-04-16T18:42:36.584Z,74.67
2023-04-16T18:46:39.289Z,75.04
2023-04-16T18:50:41.966Z,74.95
2023-04-16T18:54:44.715Z,75.34
2023-04-16T18:58:49.387Z,75.68
2023-04-16T19:02:52.149Z,76.32
2023-04-16T19:06:54.888Z,77.13
2023-04-16T19:10:57.542Z,76.89
2023-04-16T19:15:01.612Z,77.65
2023-04-16T19:19:04.347Z,77.20
2023-04-16T19:23:09.097Z,77.54
2023-04-16T19:27:11.861Z,78.10
2023-04-16T19:31:15.978Z,78.69
2023-04-16T19:35:18.757Z,79.21
2023-04-16T19:39:21.468Z,79.59
2023-04-16T19:43:24.248Z,79.88
2023-04-16T19:47:28.445Z,80.59
2023-04-16T19:51:31.307Z,80.87
2023-04-16T19:55:33.934Z,81.10
2023-04-16T19:59:38.047Z,81.84
2023-04-16T20:03:42.166Z,82.07
2023-04-16T20:07:44.879Z,82.24
2023-04-16T20:11:47.763Z,83.14
2023-04-16T20:15:52.789Z,83.01
2023-04-16T20:20:00.820Z,82.23
2023-04-16T20:24:03.735Z,82.69
2023-04-16T20:28:06.421Z,82.35
2023-04-16T20:32:09.180Z,82.40
2023-04-16T20:36:13.345Z,82.72
2023-04-16T20:40:16.997Z,83.13
2023-04-16T20:44:26.030Z,83.30
2023-04-16T20:48:28.766Z,83.44
2023-04-16T20:52:33.033Z,82.95
2023-04-16T20:56:35.714Z,83.12
2023-04-16T21:00:38.410Z,83.21
2023-04-16T21:04:41.193Z,83.17
2023-04-16T21:08:45.968Z,83.35
2023-04-16T21:12:48.747Z,83.38
2023-04-16T21:16:51.399Z,83.64
2023-04-16T21:20:54.721Z,83.84
2023-04-16T21:24:58.822Z,84.11
2023-04-16T21:29:01.543Z,83.99
2023-04-16T21:33:04.454Z,84.02
2023-04-16T21:37:08.303Z,84.29
2023-04-16T21:41:12.301Z,83.92
2023-04-16T21:45:15.503Z,84.26
2023-04-16T21:49:18.095Z,84.15
2023-04-16T21:53:20.710Z,84.62
2023-04-16T21:57:24.748Z,84.70
2023-04-16T22:01:27.484Z,85.01
2023-04-16T22:05:31.618Z,84.76
2023-04-16T22:09:34.228Z,84.97
2023-04-16T22:13:42.040Z,85.40
2023-04-16T22:17:45.511Z,86.30
2023-04-16T22:21:48.384Z,86.40
2023-04-16T22:25:51.763Z,86.76
2023-04-16T22:29:55.879Z,86.37
2023-04-16T22:33:58.476Z,86.32
2023-04-16T22:38:01.088Z,86.22
2023-04-16T22:42:03.749Z,86.38
2023-04-16T22:46:08.326Z,86.28
2023-04-16T22:50:12.567Z,86.24
2023-04-16T22:54:15.215Z,86.54
2023-04-16T22:58:17.938Z,86.84
2023-04-16T23:02:22.373Z,87.67
2023-04-16T23:06:25.085Z,88.17
2023-04-16T23:10:27.792Z,88.37
2023-04-16T23:14:31.531Z,88.10
2023-04-16T23:18:36.638Z,88.32
2023-04-16T23:22:39.319Z,88.07
2023-04-16T23:26:42.125Z,88.44
2023-04-16T23:30:44.711Z,88.35
2023-04-16T23:34:48.665Z,88.50
2023-04-16T23:38:51.242Z,88.50
2023-04-16T23:42:53.869Z,88.77
2023-04-16T23:46:56.537Z,88.94
2023-04-16T23:51:00.564Z,89.21
2023-04-16T23:55:03.276Z,89.08
2023-04-16T23:59:06.308Z,88.97
